createdAt,value
2022-07-29T00:00:25.382Z,102219.88
2022-07-29T00:03:04.150Z,102224.59
2022-07-29T00:05:32.569Z,102216.55
2022-07-29T00:08:00.840Z,102216.59
2022-07-29T00:10:29.428Z,102216.91
2022-07-29T00:12:57.790Z,102211.46
2022-07-29T00:15:26.506Z,102211.91
2022-07-29T00:17:54.915Z,102214.39
2022-07-29T00:20:23.537Z,102219.46
2022-07-29T00:22:51.842Z,102218.34
2022-07-29T00:25:20.418Z,102217.96
2022-07-29T00:27:48.842Z,102223.68
2022-07-29T00:30:17.389Z,102226.11
2022-07-29T00:32:45.742Z,102222.21
2022-07-29T00:35:32.821Z,102224.19
2022-07-29T00:38:02.218Z,102227.67
2022-07-29T00:40:30.880Z,102224.34
2022-07-29T00:42:59.574Z,102220.47
2022-07-29T00:45:28.272Z,102226.30
2022-07-29T00:47:56.904Z,102225.85
2022-07-29T00:50:25.494Z,102221.89
2022-07-29T00:52:54.492Z,102223.89
2022-07-29T00:55:23.586Z,102223.80
2022-07-29T00:57:52.348Z,102221.70
2022-07-29T01:00:23.739Z,102224.09
2022-07-29T01:02:52.329Z,102225.36
2022-07-29T01:05:51.028Z,102225.29
2022-07-29T01:08:16.525Z,102222.20
2022-07-29T01:10:45.667Z,102224.48
2022-07-29T01:13:15.977Z,102224.42
2022-07-29T01:16:00.455Z,102207.42
2022-07-29T01:18:37.415Z,102215.51
2022-07-29T01:21:27.496Z,102218.68
2022-07-29T01:24:31.693Z,102222.50
2022-07-29T01:27:24.007Z,102220.88
2022-07-29T01:30:01.052Z,102219.98
2022-07-29T01:32:32.782Z,102221.22
2022-07-29T01:35:17.713Z,102223.35
2022-07-29T01:38:02.864Z,102222.27
2022-07-29T01:40:46.216Z,102220.30
2022-07-29T01:43:41.692Z,102221.11
2022-07-29T01:46:16.117Z,102222.70
2022-07-29T01:48:54.585Z,102220.38
2022-07-29T01:51:32.796Z,102213.38
2022-07-29T01:54:21.691Z,102218.17
2022-07-29T01:56:52.542Z,102218.83
2022-07-29T01:59:22.873Z,102220.09
2022-07-29T02:01:54.851Z,102225.83
2022-07-29T02:04:28.948Z,102225.75
2022-07-29T02:07:02.878Z,102227.05
2022-07-29T02:09:34.578Z,102228.12
2022-07-29T02:12:05.308Z,102226.52
2022-07-29T02:14:39.417Z,102228.41
2022-07-29T02:17:09.087Z,102217.41
2022-07-29T02:19:39.861Z,102223.23
2022-07-29T02:22:08.711Z,102228.11
2022-07-29T02:24:38.796Z,102214.20
2022-07-29T02:27:09.592Z,102215.08
2022-07-29T02:29:39.061Z,102227.80
2022-07-29T02:32:11.610Z,102225.41
2022-07-29T02:34:42.713Z,102208.69
2022-07-29T02:37:13.038Z,102226.11
2022-07-29T02:39:43.773Z,102197.16
2022-07-29T02:42:16.111Z,102224.36
2022-07-29T02:44:45.140Z,102223.33
2022-07-29T02:47:29.231Z,102227.75
2022-07-29T02:50:18.726Z,102233.95
2022-07-29T02:52:58.716Z,102234.20
2022-07-29T02:55:38.864Z,102232.02
2022-07-29T02:58:09.200Z,102228.80
2022-07-29T03:00:40.303Z,102226.76
2022-07-29T03:03:14.637Z,102231.20
2022-07-29T03:05:43.478Z,102231.88
2022-07-29T03:08:13.951Z,102233.65
2022-07-29T03:10:45.277Z,102236.29
2022-07-29T03:13:15.197Z,102236.15
2022-07-29T03:15:46.413Z,102236.53
2022-07-29T03:18:15.913Z,102236.24
2022-07-29T03:20:44.722Z,102236.33
2022-07-29T03:23:12.926Z,102235.59
2022-07-29T03:25:41.143Z,102236.39
2022-07-29T03:28:09.839Z,102239.58
2022-07-29T03:30:38.265Z,102237.20
2022-07-29T03:33:13.254Z,102239.15
2022-07-29T03:35:42.100Z,102236.94
2022-07-29T03:38:10.296Z,102236.78
2022-07-29T03:40:52.872Z,102234.14
2022-07-29T03:43:24.003Z,102239.09
2022-07-29T03:45:55.156Z,102233.60
2022-07-29T03:48:26.500Z,102232.27
2022-07-29T03:50:54.870Z,102234.98
2022-07-29T03:53:23.857Z,102237.78
2022-07-29T03:56:00.348Z,102239.10
2022-07-29T03:58:31.633Z,102240.77
2022-07-29T04:01:00.743Z,102226.10
2022-07-29T04:03:29.059Z,102237.23
2022-07-29T04:06:02.071Z,102237.21
2022-07-29T04:08:30.515Z,102233.35
2022-07-29T04:10:58.761Z,102235.59
2022-07-29T04:13:26.914Z,102235.48
2022-07-29T04:15:55.244Z,102236.15
2022-07-29T04:18:23.566Z,102238.02
2022-07-29T04:20:51.947Z,102218.44
2022-07-29T04:23:20.107Z,102244.05
2022-07-29T04:25:48.431Z,102248.26
2022-07-29T04:28:17.071Z,102250.68
2022-07-29T04:30:45.470Z,102251.55
2022-07-29T04:33:13.944Z,102253.11
2022-07-29T04:35:50.539Z,102253.38
2022-07-29T04:38:20.887Z,102249.70
2022-07-29T04:40:49.792Z,102254.39
2022-07-29T04:43:22.679Z,102249.39
2022-07-29T04:45:52.581Z,102252.48
2022-07-29T04:48:25.357Z,102248.98
2022-07-29T04:50:57.706Z,102248.22
2022-07-29T04:53:26.803Z,102245.42
2022-07-29T04:55:55.202Z,102245.13
2022-07-29T04:58:24.704Z,102241.15
2022-07-29T05:00:52.899Z,102239.55
2022-07-29T05:03:21.310Z,102242.29
2022-07-29T05:05:49.538Z,102246.90
2022-07-29T05:08:18.127Z,102244.38
2022-07-29T05:10:46.724Z,102244.88
2022-07-29T05:13:14.921Z,102243.64
2022-07-29T05:15:43.199Z,102247.95
2022-07-29T05:18:11.467Z,102247.50
2022-07-29T05:20:40.404Z,102249.95
2022-07-29T05:23:08.913Z,102250.60
2022-07-29T05:25:44.195Z,102249.02
2022-07-29T05:28:13.165Z,102249.16
2022-07-29T05:30:41.483Z,102245.88
2022-07-29T05:33:36.023Z,102243.71
2022-07-29T05:36:00.611Z,102246.75
2022-07-29T05:38:30.519Z,102246.90
2022-07-29T05:41:00.327Z,102250.87
2022-07-29T05:43:29.366Z,102252.94
2022-07-29T05:45:58.259Z,102245.92
2022-07-29T05:48:26.675Z,102237.12
2022-07-29T05:50:55.838Z,102240.31
2022-07-29T05:53:24.481Z,102241.54
2022-07-29T05:55:53.290Z,102246.05
2022-07-29T05:58:21.694Z,102246.78
2022-07-29T06:00:50.071Z,102240.09
2022-07-29T06:03:18.307Z,102235.92
2022-07-29T06:05:46.522Z,102236.16
2022-07-29T06:08:15.050Z,102237.84
2022-07-29T06:10:43.329Z,102236.25
2022-07-29T06:13:11.573Z,102235.59
2022-07-29T06:15:40.498Z,102235.54
2022-07-29T06:18:11.125Z,102243.11
2022-07-29T06:20:39.568Z,102244.09
2022-07-29T06:23:07.829Z,102232.81
2022-07-29T06:25:37.911Z,102243.36
2022-07-29T06:28:06.164Z,102237.93
2022-07-29T06:30:34.579Z,102241.19
2022-07-29T06:33:03.955Z,102243.73
2022-07-29T06:35:41.801Z,102244.55
2022-07-29T06:38:30.043Z,102246.42
2022-07-29T06:41:03.811Z,102242.52
2022-07-29T06:43:51.029Z,102240.65
2022-07-29T06:46:24.333Z,102240.82
2022-07-29T06:48:53.521Z,102243.23
2022-07-29T06:51:23.949Z,102245.60
2022-07-29T06:53:59.850Z,102230.06
2022-07-29T06:56:38.648Z,102235.54
2022-07-29T06:59:10.083Z,102234.41
2022-07-29T07:01:40.562Z,102238.16
2022-07-29T07:04:10.001Z,102238.13
2022-07-29T07:06:39.061Z,102237.58
2022-07-29T07:09:07.816Z,102230.31
2022-07-29T07:11:36.182Z,102226.31
2022-07-29T07:14:04.717Z,102226.02
2022-07-29T07:16:33.675Z,102226.17
2022-07-29T07:19:02.606Z,102228.14
2022-07-29T07:21:31.379Z,102224.49
2022-07-29T07:24:01.009Z,102227.60
2022-07-29T07:26:29.532Z,102232.27
2022-07-29T07:28:58.261Z,102233.36
2022-07-29T07:31:26.596Z,102234.86
2022-07-29T07:33:55.191Z,102232.66
2022-07-29T07:36:23.975Z,102233.87
2022-07-29T07:38:52.303Z,102238.75
2022-07-29T07:41:20.865Z,102234.61
2022-07-29T07:43:49.559Z,102192.20
2022-07-29T07:46:18.163Z,102226.64
2022-07-29T07:48:46.560Z,102226.60
2022-07-29T07:51:14.898Z,102225.70
2022-07-29T07:53:43.199Z,102227.67
2022-07-29T07:56:12.815Z,102228.71
2022-07-29T07:58:41.359Z,102227.20
2022-07-29T08:01:10.558Z,102227.31
2022-07-29T08:03:40.086Z,102229.16
2022-07-29T08:06:08.950Z,102231.85
2022-07-29T08:08:39.723Z,102230.95
2022-07-29T08:11:09.784Z,102231.16
2022-07-29T08:13:39.209Z,102234.88
2022-07-29T08:16:16.169Z,102236.84
2022-07-29T08:18:46.592Z,102236.61
2022-07-29T08:21:17.053Z,102239.98
2022-07-29T08:23:52.725Z,102242.34
2022-07-29T08:26:26.367Z,102242.81
2022-07-29T08:28:55.077Z,102243.05
2022-07-29T08:31:23.550Z,102238.39
2022-07-29T08:33:51.958Z,102241.86
2022-07-29T08:36:22.169Z,102238.76
2022-07-29T08:38:50.858Z,102241.95
2022-07-29T08:41:23.137Z,102228.45
2022-07-29T08:43:53.064Z,102245.98
2022-07-29T08:46:22.237Z,102245.77
2022-07-29T08:48:50.932Z,102244.80
2022-07-29T08:51:21.347Z,102237.70
2022-07-29T08:53:51.294Z,102250.48
2022-07-29T08:56:20.824Z,102241.35
2022-07-29T08:58:52.043Z,102250.08
2022-07-29T09:01:35.960Z,102254.63
2022-07-29T09:04:12.867Z,102250.60
2022-07-29T09:06:46.105Z,102227.05
2022-07-29T09:09:16.036Z,102245.66
2022-07-29T09:11:44.888Z,102250.39
2022-07-29T09:14:14.802Z,102247.43
2022-07-29T09:17:00.919Z,102241.30
2022-07-29T09:19:37.082Z,102237.22
2022-07-29T09:22:07.934Z,102240.22
2022-07-29T09:24:40.894Z,102233.86
2022-07-29T09:27:23.269Z,102230.02
2022-07-29T09:30:01.885Z,102225.41
2022-07-29T09:32:30.752Z,102222.78
2022-07-29T09:35:22.181Z,102223.59
2022-07-29T09:37:51.634Z,102221.92
2022-07-29T09:40:26.072Z,102215.11
2022-07-29T09:42:58.521Z,102221.52
2022-07-29T09:45:33.726Z,102219.72
2022-07-29T09:48:24.727Z,102215.09
2022-07-29T09:50:53.689Z,102221.45
2022-07-29T09:53:39.154Z,102226.23
2022-07-29T09:56:07.520Z,102227.96
2022-07-29T09:58:36.016Z,102222.95
2022-07-29T10:01:05.166Z,102219.31
2022-07-29T10:03:33.982Z,102211.79
2022-07-29T10:06:12.369Z,102207.71
2022-07-29T10:08:42.830Z,102198.77
2022-07-29T10:11:16.288Z,102194.06
2022-07-29T10:13:47.875Z,102192.20
2022-07-29T10:16:17.731Z,102190.59
2022-07-29T10:18:47.964Z,102184.11
2022-07-29T10:21:35.586Z,102184.73
2022-07-29T10:24:06.106Z,102179.45
2022-07-29T10:26:34.775Z,102184.85
2022-07-29T10:29:03.102Z,102185.04
2022-07-29T10:31:45.286Z,102184.42
2022-07-29T10:34:34.932Z,102184.87
2022-07-29T10:37:45.699Z,102183.56
2022-07-29T10:40:48.176Z,102180.86
2022-07-29T10:43:27.321Z,102185.16
2022-07-29T10:46:00.430Z,102184.92
2022-07-29T10:48:29.124Z,102182.25
2022-07-29T10:51:05.310Z,102185.07
2022-07-29T10:53:50.447Z,102179.84
2022-07-29T10:56:30.168Z,102182.11
2022-07-29T10:59:25.187Z,102182.67
2022-07-29T11:04:46.937Z,102176.38
2022-07-29T11:07:17.530Z,102170.38
2022-07-29T11:10:14.376Z,102172.88
2022-07-29T11:12:42.467Z,102174.71
2022-07-29T11:15:19.871Z,102176.79
2022-07-29T11:18:01.415Z,102174.71
2022-07-29T11:20:37.906Z,102173.40
2022-07-29T11:23:28.079Z,102170.28
2022-07-29T11:26:34.891Z,102168.60
2022-07-29T11:29:23.323Z,102178.79
2022-07-29T11:31:56.853Z,102175.77
2022-07-29T11:34:28.214Z,102163.02
2022-07-29T11:37:16.142Z,102165.05
2022-07-29T11:40:01.785Z,102161.08
2022-07-29T11:42:35.246Z,102156.79
2022-07-29T11:45:44.974Z,102156.45
2022-07-29T11:48:29.147Z,102150.88
2022-07-29T11:50:58.515Z,102150.90
2022-07-29T11:53:29.078Z,102154.02
2022-07-29T11:56:19.363Z,102154.63
2022-07-29T11:58:47.895Z,102149.09
2022-07-29T12:01:18.612Z,102145.06
2022-07-29T12:03:46.959Z,102148.99
2022-07-29T12:06:17.622Z,102146.74
2022-07-29T12:08:47.365Z,102139.34
2022-07-29T12:11:17.884Z,102147.79
2022-07-29T12:13:50.930Z,102145.20
2022-07-29T12:16:25.809Z,102141.00
2022-07-29T12:19:02.883Z,102141.45
2022-07-29T12:21:50.949Z,102134.09
2022-07-29T12:24:26.726Z,102139.98
2022-07-29T12:27:00.296Z,102137.22
2022-07-29T12:29:34.893Z,102130.84
2022-07-29T12:32:14.990Z,102133.74
2022-07-29T12:34:48.588Z,102135.14
2022-07-29T12:37:17.771Z,102135.69
2022-07-29T12:39:46.475Z,102138.51
2022-07-29T12:42:18.523Z,102140.65
2022-07-29T12:44:52.346Z,102136.14
2022-07-29T12:47:21.702Z,102133.61
2022-07-29T12:49:50.865Z,102131.64
2022-07-29T12:52:34.833Z,102127.81
2022-07-29T12:55:04.183Z,102130.55
2022-07-29T12:57:33.351Z,102132.13
2022-07-29T13:00:06.326Z,102131.29
2022-07-29T13:02:35.715Z,102127.67
2022-07-29T13:05:07.594Z,102127.63
2022-07-29T13:07:54.344Z,102133.77
2022-07-29T13:10:24.985Z,102117.00
2022-07-29T13:13:09.215Z,102128.99
2022-07-29T13:15:42.374Z,102128.23
2022-07-29T13:18:34.955Z,102125.94
2022-07-29T13:21:17.726Z,102117.05
2022-07-29T13:23:47.494Z,102127.45
2022-07-29T13:26:19.318Z,102123.02
2022-07-29T13:28:47.781Z,102121.08
2022-07-29T13:31:16.196Z,102117.26
2022-07-29T13:33:44.857Z,102111.27
2022-07-29T13:36:13.128Z,102121.90
2022-07-29T13:38:41.661Z,102118.02
2022-07-29T13:41:10.401Z,102124.23
2022-07-29T13:43:39.015Z,102125.29
2022-07-29T13:46:07.363Z,102121.23
2022-07-29T13:48:36.025Z,102127.44
2022-07-29T13:51:04.309Z,102126.20
2022-07-29T13:53:33.840Z,102119.52
2022-07-29T13:56:02.706Z,102124.10
2022-07-29T13:58:31.305Z,102126.11
2022-07-29T14:01:00.117Z,102122.94
2022-07-29T14:03:29.173Z,102115.66
2022-07-29T14:05:57.900Z,102117.98
2022-07-29T14:08:26.417Z,102118.51
2022-07-29T14:10:54.681Z,102122.01
2022-07-29T14:13:25.164Z,102127.30
2022-07-29T14:15:54.313Z,102126.60
2022-07-29T14:18:22.667Z,102124.46
2022-07-29T14:20:52.225Z,102112.77
2022-07-29T14:23:20.580Z,102113.23
2022-07-29T14:25:49.408Z,102110.82
2022-07-29T14:28:17.990Z,102111.00
2022-07-29T14:30:47.217Z,102107.23
2022-07-29T14:33:15.669Z,102109.69
2022-07-29T14:35:44.810Z,102106.35
2022-07-29T14:38:13.176Z,102109.14
2022-07-29T14:40:41.722Z,102092.64
2022-07-29T14:43:10.076Z,102101.45
2022-07-29T14:45:38.696Z,102106.45
2022-07-29T14:48:07.312Z,102106.04
2022-07-29T14:50:36.051Z,102104.21
2022-07-29T14:53:04.741Z,102101.52
2022-07-29T14:55:33.505Z,102100.20
2022-07-29T14:58:09.735Z,102097.95
2022-07-29T15:00:40.542Z,102099.96
2022-07-29T15:03:11.552Z,102095.30
2022-07-29T15:05:40.189Z,102093.89
2022-07-29T15:08:09.339Z,102088.60
2022-07-29T15:10:37.703Z,102091.70
2022-07-29T15:13:06.202Z,102092.54
2022-07-29T15:15:34.967Z,102096.54
2022-07-29T15:18:03.499Z,102094.39
2022-07-29T15:20:32.123Z,102093.31
2022-07-29T15:23:00.364Z,102094.18
2022-07-29T15:25:28.667Z,102095.64
2022-07-29T15:28:01.082Z,102097.98
2022-07-29T15:30:33.422Z,102095.27
2022-07-29T15:33:04.512Z,102097.63
2022-07-29T15:35:33.507Z,102089.91
2022-07-29T15:38:09.528Z,102088.93
2022-07-29T15:40:40.076Z,102087.28
2022-07-29T15:43:08.458Z,102084.41
2022-07-29T15:45:42.064Z,102078.23
2022-07-29T15:48:14.507Z,102076.44
2022-07-29T15:50:46.931Z,102071.52
2022-07-29T15:53:15.498Z,102070.39
2022-07-29T15:55:44.560Z,102072.11
2022-07-29T15:58:12.992Z,102064.70
2022-07-29T16:00:41.422Z,102065.00
2022-07-29T16:03:09.800Z,102056.76
2022-07-29T16:05:38.104Z,102055.30
2022-07-29T16:08:07.134Z,102059.02
2022-07-29T16:10:35.500Z,102056.86
2022-07-29T16:13:03.951Z,102053.22
2022-07-29T16:15:32.459Z,102040.19
2022-07-29T16:18:01.092Z,102056.66
2022-07-29T16:20:29.473Z,102054.77
2022-07-29T16:22:57.760Z,102042.35
2022-07-29T16:25:43.922Z,102056.15
2022-07-29T16:28:14.382Z,102051.37
2022-07-29T16:30:42.681Z,102046.66
2022-07-29T16:33:11.033Z,102049.89
2022-07-29T16:35:40.693Z,102047.65
2022-07-29T16:38:09.129Z,102050.27
2022-07-29T16:40:37.496Z,102052.48
2022-07-29T16:43:06.585Z,101996.34
2022-07-29T16:45:42.559Z,102052.80
2022-07-29T16:48:18.073Z,102039.11
2022-07-29T16:50:47.125Z,102050.45
2022-07-29T16:53:15.481Z,102048.17
2022-07-29T16:55:44.108Z,102047.89
2022-07-29T16:58:12.322Z,102047.73
2022-07-29T17:00:40.917Z,102047.86
2022-07-29T17:03:09.265Z,102048.12
2022-07-29T17:05:50.683Z,102046.34
2022-07-29T17:08:23.269Z,102051.28
2022-07-29T17:10:51.658Z,102048.52
2022-07-29T17:13:20.428Z,102048.67
2022-07-29T17:15:48.868Z,102045.64
2022-07-29T17:18:17.780Z,102040.64
2022-07-29T17:20:46.821Z,102020.39
2022-07-29T17:23:15.127Z,102039.76
2022-07-29T17:25:43.422Z,102034.75
2022-07-29T17:28:11.759Z,102036.02
2022-07-29T17:30:40.039Z,102038.67
2022-07-29T17:33:08.381Z,102037.33
2022-07-29T17:35:55.129Z,102037.28
2022-07-29T17:38:23.479Z,102039.45
2022-07-29T17:40:51.858Z,102036.61
2022-07-29T17:43:20.193Z,102039.16
2022-07-29T17:45:49.426Z,102042.05
2022-07-29T17:48:19.735Z,102040.89
2022-07-29T17:50:50.720Z,102042.94
2022-07-29T17:53:19.097Z,102041.30
2022-07-29T17:55:52.088Z,102034.95
2022-07-29T17:58:20.459Z,102028.73
2022-07-29T18:00:49.038Z,102041.97
2022-07-29T18:03:17.907Z,102012.96
2022-07-29T18:05:46.670Z,102048.94
2022-07-29T18:08:17.071Z,102046.06
2022-07-29T18:10:46.293Z,102046.94
2022-07-29T18:13:14.657Z,102048.86
2022-07-29T18:15:45.881Z,102049.76
2022-07-29T18:18:15.320Z,102040.35
2022-07-29T18:20:43.718Z,102048.15
2022-07-29T18:23:12.881Z,102046.62
2022-07-29T18:25:41.341Z,102036.55
2022-07-29T18:28:09.690Z,102046.79
2022-07-29T18:30:38.215Z,102035.74
2022-07-29T18:33:24.259Z,102050.20
2022-07-29T18:36:10.877Z,102053.35
2022-07-29T18:38:41.422Z,102044.63
2022-07-29T18:41:10.098Z,102045.98
2022-07-29T18:43:38.433Z,102046.34
2022-07-29T18:46:06.926Z,102042.39
2022-07-29T18:48:35.454Z,102047.80
2022-07-29T18:51:09.493Z,102047.82
2022-07-29T18:53:38.141Z,102048.77
2022-07-29T18:56:06.502Z,102048.23
2022-07-29T18:58:37.100Z,102034.63
2022-07-29T19:01:06.460Z,102047.52
2022-07-29T19:03:35.085Z,102049.86
2022-07-29T19:06:03.572Z,102052.58
2022-07-29T19:08:32.987Z,102050.09
2022-07-29T19:11:01.248Z,102052.11
2022-07-29T19:13:29.540Z,102053.42
2022-07-29T19:15:58.026Z,102052.90
2022-07-29T19:18:26.458Z,102050.34
2022-07-29T19:20:54.811Z,102048.77
2022-07-29T19:23:23.718Z,102045.13
2022-07-29T19:25:53.776Z,102043.69
2022-07-29T19:28:22.788Z,102048.88
2022-07-29T19:30:51.341Z,102051.70
2022-07-29T19:33:19.798Z,102051.31
2022-07-29T19:35:52.831Z,102052.45
2022-07-29T19:38:23.542Z,102051.50
2022-07-29T19:40:52.324Z,102050.45
2022-07-29T19:43:51.799Z,102027.48
2022-07-29T19:46:09.866Z,102051.05
2022-07-29T19:48:39.065Z,102051.91
2022-07-29T19:51:07.384Z,102045.89
2022-07-29T19:53:35.664Z,102041.42
2022-07-29T19:56:04.237Z,102046.36
2022-07-29T19:58:32.618Z,102043.55
2022-07-29T20:01:00.937Z,102043.40
2022-07-29T20:03:29.947Z,102042.63
2022-07-29T20:05:58.427Z,102043.38
2022-07-29T20:08:26.790Z,102043.58
2022-07-29T20:10:56.155Z,102039.80
2022-07-29T20:13:24.757Z,102025.66
2022-07-29T20:15:53.182Z,102040.70
2022-07-29T20:18:21.605Z,102045.61
2022-07-29T20:20:50.238Z,102046.14
2022-07-29T20:23:19.514Z,102044.64
2022-07-29T20:25:48.571Z,102039.05
2022-07-29T20:28:17.005Z,102052.06
2022-07-29T20:30:45.581Z,102054.96
2022-07-29T20:33:16.094Z,102054.36
2022-07-29T20:35:44.529Z,102053.55
2022-07-29T20:38:18.078Z,102055.61
2022-07-29T20:40:46.748Z,102052.52
2022-07-29T20:43:15.078Z,102054.55
2022-07-29T20:45:43.520Z,102054.00
2022-07-29T20:48:13.676Z,102004.73
2022-07-29T20:50:42.967Z,102054.38
2022-07-29T20:53:11.699Z,102057.79
2022-07-29T20:55:40.066Z,102058.23
2022-07-29T20:58:08.922Z,102057.65
2022-07-29T21:00:37.586Z,102056.89
2022-07-29T21:03:06.450Z,102059.92
2022-07-29T21:05:37.142Z,102062.63
2022-07-29T21:08:05.767Z,102064.86
2022-07-29T21:10:34.055Z,102064.96
2022-07-29T21:13:02.424Z,102060.61
2022-07-29T21:15:30.927Z,102058.08
2022-07-29T21:18:02.819Z,102054.69
2022-07-29T21:20:31.724Z,102055.44
2022-07-29T21:23:00.474Z,102051.70
2022-07-29T21:25:29.804Z,102042.13
2022-07-29T21:28:19.049Z,102051.84
2022-07-29T21:30:47.435Z,102054.97
2022-07-29T21:33:15.784Z,102056.30
2022-07-29T21:36:06.171Z,102056.58
2022-07-29T21:38:33.255Z,102055.95
2022-07-29T21:41:02.728Z,102054.60
2022-07-29T21:43:31.606Z,102054.30
2022-07-29T21:46:00.704Z,102051.67
2022-07-29T21:48:29.464Z,102038.90
2022-07-29T21:50:57.892Z,102050.33
2022-07-29T21:53:28.295Z,102045.73
2022-07-29T21:55:57.016Z,102036.79
2022-07-29T21:58:25.529Z,102046.39
2022-07-29T22:00:54.167Z,102045.50
2022-07-29T22:03:22.537Z,102052.45
2022-07-29T22:05:50.851Z,102049.06
2022-07-29T22:08:21.506Z,102040.48
2022-07-29T22:10:50.188Z,102045.44
2022-07-29T22:13:18.571Z,102046.37
2022-07-29T22:15:47.419Z,102047.20
2022-07-29T22:18:20.533Z,102034.82
2022-07-29T22:20:50.819Z,102048.02
2022-07-29T22:23:19.251Z,102048.57
2022-07-29T22:25:47.721Z,102048.78
2022-07-29T22:28:15.908Z,102047.05
2022-07-29T22:30:44.305Z,102045.20
2022-07-29T22:33:17.881Z,102046.02
2022-07-29T22:35:48.636Z,102040.63
2022-07-29T22:38:18.689Z,102035.52
2022-07-29T22:40:48.580Z,102030.73
2022-07-29T22:43:17.076Z,102019.32
2022-07-29T22:45:45.596Z,102023.71
2022-07-29T22:48:14.015Z,102022.67
2022-07-29T22:50:42.411Z,102019.77
2022-07-29T22:53:10.582Z,102019.02
2022-07-29T22:55:38.958Z,102017.75
2022-07-29T22:58:07.347Z,102014.84
2022-07-29T23:00:35.761Z,102012.98
2022-07-29T23:03:04.542Z,102009.33
2022-07-29T23:05:33.614Z,102007.40
2022-07-29T23:08:01.901Z,102007.15
2022-07-29T23:10:30.214Z,102006.38
2022-07-29T23:12:59.135Z,102003.14
2022-07-29T23:15:27.830Z,101998.78
2022-07-29T23:17:56.211Z,101995.54
2022-07-29T23:20:24.635Z,101993.81
2022-07-29T23:22:53.062Z,101992.87
2022-07-29T23:25:21.434Z,101994.02
2022-07-29T23:27:49.690Z,101995.14
2022-07-29T23:30:17.914Z,101991.27
2022-07-29T23:32:46.447Z,102000.23
2022-07-29T23:35:14.878Z,101998.58
2022-07-29T23:37:43.292Z,101999.95
2022-07-29T23:40:14.428Z,101999.63
2022-07-29T23:42:44.039Z,102000.36
2022-07-29T23:45:13.741Z,101998.96
2022-07-29T23:47:42.812Z,102001.56
2022-07-29T23:50:12.680Z,101998.06
2022-07-29T23:52:41.853Z,101997.12
2022-07-29T23:55:36.664Z,101997.25
2022-07-29T23:58:00.213Z,101996.71
